sensor_id;sensor_type;location;lat;lon;timestamp;P1;durP1;ratioP1;P2;durP2;ratioP2
62687;SDS011;48752;51.056;17.056;2023-04-25T00:02:19;2.72;;;1.30;;
62687;SDS011;48752;51.056;17.056;2023-04-25T00:04:44;1.48;;;1.10;;
62687;SDS011;48752;51.056;17.056;2023-04-25T00:07:11;1.40;;;1.30;;
62687;SDS011;48752;51.056;17.056;2023-04-25T00:09:36;1.35;;;1.17;;
62687;SDS011;48752;51.056;17.056;2023-04-25T00:12:02;3.10;;;1.40;;
62687;SDS011;48752;51.056;17.056;2023-04-25T00:14:28;1.35;;;1.08;;
62687;SDS011;48752;51.056;17.056;2023-04-25T00:16:54;4.72;;;1.70;;
62687;SDS011;48752;51.056;17.056;2023-04-25T00:19:19;1.83;;;1.23;;
62687;SDS011;48752;51.056;17.056;2023-04-25T00:21:45;2.00;;;1.65;;
62687;SDS011;48752;51.056;17.056;2023-04-25T00:24:11;1.45;;;1.23;;
62687;SDS011;48752;51.056;17.056;2023-04-25T00:26:37;1.10;;;1.00;;
62687;SDS011;48752;51.056;17.056;2023-04-25T00:29:02;1.70;;;1.20;;
62687;SDS011;48752;51.056;17.056;2023-04-25T00:31:28;3.05;;;1.50;;
62687;SDS011;48752;51.056;17.056;2023-04-25T00:33:54;1.35;;;1.25;;
62687;SDS011;48752;51.056;17.056;2023-04-25T00:36:19;1.20;;;1.10;;
62687;SDS011;48752;51.056;17.056;2023-04-25T00:38:45;2.85;;;1.20;;
62687;SDS011;48752;51.056;17.056;2023-04-25T00:41:10;1.30;;;1.00;;
62687;SDS011;48752;51.056;17.056;2023-04-25T00:43:36;1.52;;;1.30;;
62687;SDS011;48752;51.056;17.056;2023-04-25T00:46:02;1.20;;;1.10;;
62687;SDS011;48752;51.056;17.056;2023-04-25T00:48:28;1.40;;;1.30;;
62687;SDS011;48752;51.056;17.056;2023-04-25T00:50:54;2.45;;;1.30;;
62687;SDS011;48752;51.056;17.056;2023-04-25T00:53:22;1.65;;;1.40;;
62687;SDS011;48752;51.056;17.056;2023-04-25T00:55:51;1.50;;;1.40;;
62687;SDS011;48752;51.056;17.056;2023-04-25T00:58:17;1.40;;;1.30;;
62687;SDS011;48752;51.056;17.056;2023-04-25T01:00:43;1.98;;;1.50;;
62687;SDS011;48752;51.056;17.056;2023-04-25T01:03:10;4.88;;;1.70;;
62687;SDS011;48752;51.056;17.056;2023-04-25T01:05:36;1.80;;;1.50;;
62687;SDS011;48752;51.056;17.056;2023-04-25T01:08:02;2.13;;;1.50;;
62687;SDS011;48752;51.056;17.056;2023-04-25T01:10:27;3.30;;;2.72;;
62687;SDS011;48752;51.056;17.056;2023-04-25T01:12:53;2.67;;;1.95;;
62687;SDS011;48752;51.056;17.056;2023-04-25T01:15:18;7.72;;;2.30;;
62687;SDS011;48752;51.056;17.056;2023-04-25T01:17:43;2.97;;;1.70;;
62687;SDS011;48752;51.056;17.056;2023-04-25T01:20:09;2.47;;;2.10;;
62687;SDS011;48752;51.056;17.056;2023-04-25T01:22:36;3.72;;;2.30;;
62687;SDS011;48752;51.056;17.056;2023-04-25T01:25:01;2.95;;;2.30;;
62687;SDS011;48752;51.056;17.056;2023-04-25T01:27:27;6.13;;;2.38;;
62687;SDS011;48752;51.056;17.056;2023-04-25T01:29:53;4.18;;;2.47;;
62687;SDS011;48752;51.056;17.056;2023-04-25T01:32:19;3.67;;;2.20;;
62687;SDS011;48752;51.056;17.056;2023-04-25T01:34:45;6.07;;;2.90;;
62687;SDS011;48752;51.056;17.056;2023-04-25T01:37:11;4.30;;;2.55;;
62687;SDS011;48752;51.056;17.056;2023-04-25T01:39:36;4.72;;;3.25;;
62687;SDS011;48752;51.056;17.056;2023-04-25T01:42:01;5.32;;;2.65;;
62687;SDS011;48752;51.056;17.056;2023-04-25T01:44:27;4.40;;;2.70;;
62687;SDS011;48752;51.056;17.056;2023-04-25T01:46:53;4.97;;;2.45;;
62687;SDS011;48752;51.056;17.056;2023-04-25T01:49:18;5.55;;;2.67;;
62687;SDS011;48752;51.056;17.056;2023-04-25T01:51:44;4.93;;;2.58;;
62687;SDS011;48752;51.056;17.056;2023-04-25T01:54:09;5.82;;;2.83;;
62687;SDS011;48752;51.056;17.056;2023-04-25T01:56:37;3.20;;;2.30;;
62687;SDS011;48752;51.056;17.056;2023-04-25T01:59:03;3.38;;;2.50;;
62687;SDS011;48752;51.056;17.056;2023-04-25T02:01:29;4.85;;;2.60;;
62687;SDS011;48752;51.056;17.056;2023-04-25T02:03:55;3.50;;;2.63;;
62687;SDS011;48752;51.056;17.056;2023-04-25T02:06:20;3.53;;;2.50;;
62687;SDS011;48752;51.056;17.056;2023-04-25T02:08:45;6.13;;;3.22;;
62687;SDS011;48752;51.056;17.056;2023-04-25T02:11:11;3.42;;;2.63;;
62687;SDS011;48752;51.056;17.056;2023-04-25T02:13:36;3.50;;;2.40;;
62687;SDS011;48752;51.056;17.056;2023-04-25T02:16:02;4.88;;;2.83;;
62687;SDS011;48752;51.056;17.056;2023-04-25T02:18:27;5.55;;;2.88;;
62687;SDS011;48752;51.056;17.056;2023-04-25T02:20:53;4.20;;;3.00;;
62687;SDS011;48752;51.056;17.056;2023-04-25T02:23:19;4.47;;;2.97;;
62687;SDS011;48752;51.056;17.056;2023-04-25T02:25:44;5.72;;;3.15;;
62687;SDS011;48752;51.056;17.056;2023-04-25T02:28:10;4.35;;;3.22;;
62687;SDS011;48752;51.056;17.056;2023-04-25T02:30:35;4.75;;;3.40;;
62687;SDS011;48752;51.056;17.056;2023-04-25T02:33:01;4.13;;;3.72;;
62687;SDS011;48752;51.056;17.056;2023-04-25T02:35:26;7.85;;;3.58;;
62687;SDS011;48752;51.056;17.056;2023-04-25T02:37:52;5.18;;;3.38;;
62687;SDS011;48752;51.056;17.056;2023-04-25T02:40:17;4.85;;;3.15;;
62687;SDS011;48752;51.056;17.056;2023-04-25T02:42:42;5.22;;;3.40;;
62687;SDS011;48752;51.056;17.056;2023-04-25T02:45:10;6.72;;;3.25;;
62687;SDS011;48752;51.056;17.056;2023-04-25T02:47:36;4.43;;;3.70;;
62687;SDS011;48752;51.056;17.056;2023-04-25T02:50:01;4.00;;;3.30;;
62687;SDS011;48752;51.056;17.056;2023-04-25T02:52:27;4.47;;;3.50;;
62687;SDS011;48752;51.056;17.056;2023-04-25T02:54:52;5.95;;;3.28;;
62687;SDS011;48752;51.056;17.056;2023-04-25T02:57:18;6.32;;;4.03;;
62687;SDS011;48752;51.056;17.056;2023-04-25T02:59:43;5.47;;;4.20;;
62687;SDS011;48752;51.056;17.056;2023-04-25T03:02:09;6.47;;;3.55;;
62687;SDS011;48752;51.056;17.056;2023-04-25T03:04:34;4.55;;;3.60;;
62687;SDS011;48752;51.056;17.056;2023-04-25T03:07:00;8.48;;;3.85;;
62687;SDS011;48752;51.056;17.056;2023-04-25T03:09:26;5.47;;;3.75;;
62687;SDS011;48752;51.056;17.056;2023-04-25T03:11:51;8.48;;;3.88;;
62687;SDS011;48752;51.056;17.056;2023-04-25T03:14:17;7.47;;;4.18;;
62687;SDS011;48752;51.056;17.056;2023-04-25T03:16:42;6.78;;;4.40;;
62687;SDS011;48752;51.056;17.056;2023-04-25T03:19:07;5.65;;;4.00;;
62687;SDS011;48752;51.056;17.056;2023-04-25T03:21:33;6.70;;;4.40;;
62687;SDS011;48752;51.056;17.056;2023-04-25T03:24:00;5.07;;;3.38;;
62687;SDS011;48752;51.056;17.056;2023-04-25T03:26:27;4.70;;;3.40;;
62687;SDS011;48752;51.056;17.056;2023-04-25T03:28:52;5.55;;;3.55;;
62687;SDS011;48752;51.056;17.056;2023-04-25T03:31:17;7.75;;;3.90;;
62687;SDS011;48752;51.056;17.056;2023-04-25T03:33:43;5.30;;;3.70;;
62687;SDS011;48752;51.056;17.056;2023-04-25T03:36:08;6.20;;;3.55;;
62687;SDS011;48752;51.056;17.056;2023-04-25T03:38:34;5.57;;;3.65;;
62687;SDS011;48752;51.056;17.056;2023-04-25T03:41:00;8.25;;;3.70;;
62687;SDS011;48752;51.056;17.056;2023-04-25T03:43:26;5.07;;;3.70;;
62687;SDS011;48752;51.056;17.056;2023-04-25T03:45:52;5.38;;;3.92;;
62687;SDS011;48752;51.056;17.056;2023-04-25T03:48:17;9.35;;;4.07;;
62687;SDS011;48752;51.056;17.056;2023-04-25T03:50:43;10.20;;;4.07;;
62687;SDS011;48752;51.056;17.056;2023-04-25T03:53:08;6.28;;;3.78;;
62687;SDS011;48752;51.056;17.056;2023-04-25T03:55:33;5.10;;;4.32;;
62687;SDS011;48752;51.056;17.056;2023-04-25T03:57:59;6.40;;;4.63;;
62687;SDS011;48752;51.056;17.056;2023-04-25T04:00:24;8.25;;;4.60;;
62687;SDS011;48752;51.056;17.056;2023-04-25T04:02:50;10.95;;;5.82;;
62687;SDS011;48752;51.056;17.056;2023-04-25T04:05:16;7.00;;;4.82;;
62687;SDS011;48752;51.056;17.056;2023-04-25T04:07:41;7.45;;;4.55;;
62687;SDS011;48752;51.056;17.056;2023-04-25T04:10:08;11.73;;;4.85;;
62687;SDS011;48752;51.056;17.056;2023-04-25T04:12:37;10.68;;;4.78;;
62687;SDS011;48752;51.056;17.056;2023-04-25T04:15:03;11.45;;;6.55;;
62687;SDS011;48752;51.056;17.056;2023-04-25T04:17:33;8.20;;;6.22;;
62687;SDS011;48752;51.056;17.056;2023-04-25T04:20:19;8.35;;;5.07;;
62687;SDS011;48752;51.056;17.056;2023-04-25T04:22:45;9.10;;;4.82;;
62687;SDS011;48752;51.056;17.056;2023-04-25T04:25:11;7.55;;;4.82;;
62687;SDS011;48752;51.056;17.056;2023-04-25T04:27:37;10.20;;;4.90;;
62687;SDS011;48752;51.056;17.056;2023-04-25T04:30:21;7.47;;;4.80;;
62687;SDS011;48752;51.056;17.056;2023-04-25T04:32:49;5.35;;;4.57;;
62687;SDS011;48752;51.056;17.056;2023-04-25T04:35:18;7.20;;;4.95;;
62687;SDS011;48752;51.056;17.056;2023-04-25T04:37:50;7.93;;;5.47;;
62687;SDS011;48752;51.056;17.056;2023-04-25T04:40:16;7.03;;;5.00;;
62687;SDS011;48752;51.056;17.056;2023-04-25T04:42:42;7.72;;;5.45;;
62687;SDS011;48752;51.056;17.056;2023-04-25T04:45:09;5.85;;;4.43;;
62687;SDS011;48752;51.056;17.056;2023-04-25T04:47:37;8.85;;;5.35;;
62687;SDS011;48752;51.056;17.056;2023-04-25T04:50:10;5.85;;;4.22;;
62687;SDS011;48752;51.056;17.056;2023-04-25T04:52:37;8.95;;;4.45;;
62687;SDS011;48752;51.056;17.056;2023-04-25T04:55:04;7.13;;;4.43;;
62687;SDS011;48752;51.056;17.056;2023-04-25T04:57:31;10.18;;;4.38;;
62687;SDS011;48752;51.056;17.056;2023-04-25T04:59:58;6.18;;;4.22;;
62687;SDS011;48752;51.056;17.056;2023-04-25T05:02:25;6.35;;;4.82;;
62687;SDS011;48752;51.056;17.056;2023-04-25T05:04:51;8.18;;;4.93;;
62687;SDS011;48752;51.056;17.056;2023-04-25T05:07:17;9.73;;;5.18;;
62687;SDS011;48752;51.056;17.056;2023-04-25T05:09:43;13.43;;;5.65;;
62687;SDS011;48752;51.056;17.056;2023-04-25T05:12:10;6.22;;;4.53;;
62687;SDS011;48752;51.056;17.056;2023-04-25T05:14:49;8.38;;;4.80;;
62687;SDS011;48752;51.056;17.056;2023-04-25T05:17:15;11.02;;;4.50;;
62687;SDS011;48752;51.056;17.056;2023-04-25T05:19:42;7.25;;;4.20;;
62687;SDS011;48752;51.056;17.056;2023-04-25T05:22:08;6.68;;;4.60;;
62687;SDS011;48752;51.056;17.056;2023-04-25T05:24:34;5.93;;;4.18;;
62687;SDS011;48752;51.056;17.056;2023-04-25T05:27:00;5.68;;;4.25;;
62687;SDS011;48752;51.056;17.056;2023-04-25T05:29:25;7.38;;;4.50;;
62687;SDS011;48752;51.056;17.056;2023-04-25T05:31:50;4.88;;;3.90;;
62687;SDS011;48752;51.056;17.056;2023-04-25T05:34:16;6.78;;;5.20;;
62687;SDS011;48752;51.056;17.056;2023-04-25T05:36:41;5.32;;;4.22;;
62687;SDS011;48752;51.056;17.056;2023-04-25T05:39:07;9.18;;;5.32;;
62687;SDS011;48752;51.056;17.056;2023-04-25T05:41:33;6.30;;;3.88;;
62687;SDS011;48752;51.056;17.056;2023-04-25T05:43:59;4.80;;;3.88;;
62687;SDS011;48752;51.056;17.056;2023-04-25T05:46:24;6.03;;;4.65;;
62687;SDS011;48752;51.056;17.056;2023-04-25T05:48:50;6.45;;;3.88;;
62687;SDS011;48752;51.056;17.056;2023-04-25T05:51:15;4.65;;;3.60;;
62687;SDS011;48752;51.056;17.056;2023-04-25T05:53:41;9.35;;;4.97;;
62687;SDS011;48752;51.056;17.056;2023-04-25T05:56:06;5.95;;;3.90;;
62687;SDS011;48752;51.056;17.056;2023-04-25T05:58:33;9.20;;;3.88;;
62687;SDS011;48752;51.056;17.056;2023-04-25T06:00:58;5.05;;;3.90;;
62687;SDS011;48752;51.056;17.056;2023-04-25T06:03:24;7.65;;;3.78;;
62687;SDS011;48752;51.056;17.056;2023-04-25T06:05:49;10.88;;;4.45;;
62687;SDS011;48752;51.056;17.056;2023-04-25T06:08:15;8.32;;;3.70;;
62687;SDS011;48752;51.056;17.056;2023-04-25T06:10:40;5.90;;;3.88;;
62687;SDS011;48752;51.056;17.056;2023-04-25T06:13:06;6.15;;;4.00;;
62687;SDS011;48752;51.056;17.056;2023-04-25T06:15:31;4.57;;;3.45;;
62687;SDS011;48752;51.056;17.056;2023-04-25T06:18:00;6.43;;;4.25;;
62687;SDS011;48752;51.056;17.056;2023-04-25T06:20:25;5.07;;;3.40;;
62687;SDS011;48752;51.056;17.056;2023-04-25T06:22:51;10.65;;;4.40;;
62687;SDS011;48752;51.056;17.056;2023-04-25T06:25:17;4.47;;;3.65;;
62687;SDS011;48752;51.056;17.056;2023-04-25T06:27:42;6.63;;;3.58;;
62687;SDS011;48752;51.056;17.056;2023-04-25T06:30:08;6.07;;;2.92;;
62687;SDS011;48752;51.056;17.056;2023-04-25T06:32:34;6.25;;;3.10;;
62687;SDS011;48752;51.056;17.056;2023-04-25T06:35:00;4.93;;;3.10;;
62687;SDS011;48752;51.056;17.056;2023-04-25T06:37:25;9.15;;;3.55;;
62687;SDS011;48752;51.056;17.056;2023-04-25T06:39:51;5.35;;;2.47;;
62687;SDS011;48752;51.056;17.056;2023-04-25T06:42:17;4.15;;;3.00;;
62687;SDS011;48752;51.056;17.056;2023-04-25T06:44:42;7.30;;;3.20;;
62687;SDS011;48752;51.056;17.056;2023-04-25T06:47:07;5.68;;;4.00;;
62687;SDS011;48752;51.056;17.056;2023-04-25T06:49:33;5.00;;;2.53;;
62687;SDS011;48752;51.056;17.056;2023-04-25T06:51:58;10.63;;;2.97;;
62687;SDS011;48752;51.056;17.056;2023-04-25T06:54:24;4.15;;;2.80;;
62687;SDS011;48752;51.056;17.056;2023-04-25T06:56:52;13.13;;;3.45;;
62687;SDS011;48752;51.056;17.056;2023-04-25T06:59:18;4.05;;;2.85;;
62687;SDS011;48752;51.056;17.056;2023-04-25T07:01:43;6.32;;;3.25;;
62687;SDS011;48752;51.056;17.056;2023-04-25T07:04:08;5.38;;;2.92;;
62687;SDS011;48752;51.056;17.056;2023-04-25T07:06:34;9.35;;;3.40;;
62687;SDS011;48752;51.056;17.056;2023-04-25T07:09:03;5.75;;;2.70;;
62687;SDS011;48752;51.056;17.056;2023-04-25T07:11:28;9.32;;;3.40;;
62687;SDS011;48752;51.056;17.056;2023-04-25T07:13:54;8.90;;;3.03;;
62687;SDS011;48752;51.056;17.056;2023-04-25T07:16:19;5.72;;;2.28;;
62687;SDS011;48752;51.056;17.056;2023-04-25T07:18:45;7.97;;;3.35;;
62687;SDS011;48752;51.056;17.056;2023-04-25T07:21:10;8.75;;;2.55;;
62687;SDS011;48752;51.056;17.056;2023-04-25T07:23:36;6.28;;;3.00;;
62687;SDS011;48752;51.056;17.056;2023-04-25T07:26:02;5.05;;;2.30;;
62687;SDS011;48752;51.056;17.056;2023-04-25T07:28:27;6.53;;;2.50;;
62687;SDS011;48752;51.056;17.056;2023-04-25T07:30:53;5.40;;;3.30;;
62687;SDS011;48752;51.056;17.056;2023-04-25T07:33:18;4.50;;;2.60;;
62687;SDS011;48752;51.056;17.056;2023-04-25T07:35:46;7.10;;;2.70;;
62687;SDS011;48752;51.056;17.056;2023-04-25T07:38:12;8.32;;;2.92;;
62687;SDS011;48752;51.056;17.056;2023-04-25T07:40:38;4.47;;;2.35;;
62687;SDS011;48752;51.056;17.056;2023-04-25T07:43:03;5.18;;;2.22;;
62687;SDS011;48752;51.056;17.056;2023-04-25T07:45:29;5.50;;;2.55;;
62687;SDS011;48752;51.056;17.056;2023-04-25T07:47:54;6.40;;;2.53;;
62687;SDS011;48752;51.056;17.056;2023-04-25T07:50:20;7.05;;;2.30;;
62687;SDS011;48752;51.056;17.056;2023-04-25T07:52:46;4.47;;;2.38;;
62687;SDS011;48752;51.056;17.056;2023-04-25T07:55:11;5.13;;;2.38;;
62687;SDS011;48752;51.056;17.056;2023-04-25T07:57:37;5.32;;;2.70;;
62687;SDS011;48752;51.056;17.056;2023-04-25T08:00:03;9.05;;;3.33;;
62687;SDS011;48752;51.056;17.056;2023-04-25T08:02:30;5.35;;;2.45;;
62687;SDS011;48752;51.056;17.056;2023-04-25T08:04:55;11.48;;;3.72;;
62687;SDS011;48752;51.056;17.056;2023-04-25T08:07:20;6.60;;;3.10;;
62687;SDS011;48752;51.056;17.056;2023-04-25T08:09:46;3.72;;;2.75;;
62687;SDS011;48752;51.056;17.056;2023-04-25T08:12:11;7.15;;;3.60;;
62687;SDS011;48752;51.056;17.056;2023-04-25T08:14:37;6.63;;;2.92;;
62687;SDS011;48752;51.056;17.056;2023-04-25T08:17:04;8.20;;;3.17;;
62687;SDS011;48752;51.056;17.056;2023-04-25T08:19:30;9.35;;;3.40;;
62687;SDS011;48752;51.056;17.056;2023-04-25T08:21:55;5.05;;;3.47;;
62687;SDS011;48752;51.056;17.056;2023-04-25T08:24:21;5.55;;;3.72;;
62687;SDS011;48752;51.056;17.056;2023-04-25T08:26:47;11.05;;;5.13;;
62687;SDS011;48752;51.056;17.056;2023-04-25T08:29:13;6.88;;;5.30;;
62687;SDS011;48752;51.056;17.056;2023-04-25T08:31:38;9.23;;;4.50;;
62687;SDS011;48752;51.056;17.056;2023-04-25T08:34:03;7.70;;;5.00;;
62687;SDS011;48752;51.056;17.056;2023-04-25T08:36:29;7.75;;;4.65;;
62687;SDS011;48752;51.056;17.056;2023-04-25T08:38:54;9.65;;;5.13;;
62687;SDS011;48752;51.056;17.056;2023-04-25T08:41:20;9.50;;;5.22;;
62687;SDS011;48752;51.056;17.056;2023-04-25T08:43:47;7.60;;;5.28;;
62687;SDS011;48752;51.056;17.056;2023-04-25T08:46:13;11.38;;;5.07;;
62687;SDS011;48752;51.056;17.056;2023-04-25T08:48:43;8.35;;;5.50;;
62687;SDS011;48752;51.056;17.056;2023-04-25T08:51:10;11.52;;;6.30;;
62687;SDS011;48752;51.056;17.056;2023-04-25T08:53:35;9.13;;;5.47;;
62687;SDS011;48752;51.056;17.056;2023-04-25T08:56:01;7.00;;;5.38;;
62687;SDS011;48752;51.056;17.056;2023-04-25T08:58:28;11.95;;;6.18;;
62687;SDS011;48752;51.056;17.056;2023-04-25T09:00:54;9.75;;;5.43;;
62687;SDS011;48752;51.056;17.056;2023-04-25T09:03:19;6.65;;;4.25;;
62687;SDS011;48752;51.056;17.056;2023-04-25T09:05:45;7.95;;;4.63;;
62687;SDS011;48752;51.056;17.056;2023-04-25T09:08:10;5.30;;;4.28;;
62687;SDS011;48752;51.056;17.056;2023-04-25T09:10:36;6.10;;;4.88;;
62687;SDS011;48752;51.056;17.056;2023-04-25T09:13:03;5.95;;;4.40;;
62687;SDS011;48752;51.056;17.056;2023-04-25T09:15:30;5.10;;;4.15;;
62687;SDS011;48752;51.056;17.056;2023-04-25T09:17:56;6.38;;;4.15;;
62687;SDS011;48752;51.056;17.056;2023-04-25T09:20:22;8.45;;;4.38;;
62687;SDS011;48752;51.056;17.056;2023-04-25T09:22:48;8.25;;;4.45;;
62687;SDS011;48752;51.056;17.056;2023-04-25T09:25:13;5.90;;;3.78;;
62687;SDS011;48752;51.056;17.056;2023-04-25T09:27:51;8.35;;;3.67;;
62687;SDS011;48752;51.056;17.056;2023-04-25T09:30:17;8.15;;;3.70;;
62687;SDS011;48752;51.056;17.056;2023-04-25T09:32:43;3.65;;;3.05;;
62687;SDS011;48752;51.056;17.056;2023-04-25T09:35:08;5.80;;;3.45;;
62687;SDS011;48752;51.056;17.056;2023-04-25T09:37:34;7.10;;;3.50;;
62687;SDS011;48752;51.056;17.056;2023-04-25T09:40:00;5.10;;;3.45;;
62687;SDS011;48752;51.056;17.056;2023-04-25T09:42:30;4.20;;;3.00;;
62687;SDS011;48752;51.056;17.056;2023-04-25T09:44:57;3.42;;;2.72;;
62687;SDS011;48752;51.056;17.056;2023-04-25T09:47:23;4.32;;;2.65;;
62687;SDS011;48752;51.056;17.056;2023-04-25T09:49:50;4.13;;;2.60;;
62687;SDS011;48752;51.056;17.056;2023-04-25T09:52:17;9.40;;;3.38;;
62687;SDS011;48752;51.056;17.056;2023-04-25T09:54:47;4.47;;;3.33;;
62687;SDS011;48752;51.056;17.056;2023-04-25T09:57:17;6.47;;;3.30;;
62687;SDS011;48752;51.056;17.056;2023-04-25T09:59:48;7.37;;;4.10;;
62687;SDS011;48752;51.056;17.056;2023-04-25T10:02:15;6.00;;;4.18;;
62687;SDS011;48752;51.056;17.056;2023-04-25T10:04:45;6.15;;;3.85;;
62687;SDS011;48752;51.056;17.056;2023-04-25T10:07:13;6.70;;;4.30;;
62687;SDS011;48752;51.056;17.056;2023-04-25T10:09:39;7.93;;;4.00;;
62687;SDS011;48752;51.056;17.056;2023-04-25T10:12:05;8.95;;;4.65;;
62687;SDS011;48752;51.056;17.056;2023-04-25T10:14:32;5.50;;;4.55;;
62687;SDS011;48752;51.056;17.056;2023-04-25T10:16:58;3.55;;;3.25;;
62687;SDS011;48752;51.056;17.056;2023-04-25T10:19:25;7.75;;;4.65;;
62687;SDS011;48752;51.056;17.056;2023-04-25T10:21:52;12.27;;;4.57;;
62687;SDS011;48752;51.056;17.056;2023-04-25T10:24:20;7.00;;;4.57;;
62687;SDS011;48752;51.056;17.056;2023-04-25T10:26:47;8.00;;;4.75;;
62687;SDS011;48752;51.056;17.056;2023-04-25T10:29:14;6.95;;;4.68;;
62687;SDS011;48752;51.056;17.056;2023-04-25T10:31:47;6.30;;;3.88;;
62687;SDS011;48752;51.056;17.056;2023-04-25T10:34:13;9.90;;;5.13;;
62687;SDS011;48752;51.056;17.056;2023-04-25T10:36:38;4.90;;;3.75;;
62687;SDS011;48752;51.056;17.056;2023-04-25T10:39:05;5.93;;;3.72;;
62687;SDS011;48752;51.056;17.056;2023-04-25T10:41:48;6.00;;;4.15;;
62687;SDS011;48752;51.056;17.056;2023-04-25T10:44:18;5.78;;;3.80;;
62687;SDS011;48752;51.056;17.056;2023-04-25T10:46:44;9.15;;;4.10;;
62687;SDS011;48752;51.056;17.056;2023-04-25T10:49:10;9.15;;;3.15;;
62687;SDS011;48752;51.056;17.056;2023-04-25T10:51:36;6.85;;;3.28;;
62687;SDS011;48752;51.056;17.056;2023-04-25T10:56:29;5.72;;;3.40;;
62687;SDS011;48752;51.056;17.056;2023-04-25T10:59:04;4.10;;;3.10;;
62687;SDS011;48752;51.056;17.056;2023-04-25T11:01:36;6.05;;;3.70;;
62687;SDS011;48752;51.056;17.056;2023-04-25T11:04:01;5.13;;;3.20;;
62687;SDS011;48752;51.056;17.056;2023-04-25T11:06:46;4.97;;;3.00;;
62687;SDS011;48752;51.056;17.056;2023-04-25T11:09:16;8.15;;;3.83;;
62687;SDS011;48752;51.056;17.056;2023-04-25T11:11:41;4.50;;;2.83;;
62687;SDS011;48752;51.056;17.056;2023-04-25T11:14:07;7.53;;;3.28;;
62687;SDS011;48752;51.056;17.056;2023-04-25T11:16:32;4.00;;;3.20;;
62687;SDS011;48752;51.056;17.056;2023-04-25T11:18:58;5.28;;;2.80;;
62687;SDS011;48752;51.056;17.056;2023-04-25T11:21:26;4.15;;;2.55;;
62687;SDS011;48752;51.056;17.056;2023-04-25T11:23:53;4.10;;;2.00;;
62687;SDS011;48752;51.056;17.056;2023-04-25T11:26:19;2.83;;;2.38;;
62687;SDS011;48752;51.056;17.056;2023-04-25T11:28:45;5.30;;;2.28;;
62687;SDS011;48752;51.056;17.056;2023-04-25T11:31:11;3.08;;;1.85;;
62687;SDS011;48752;51.056;17.056;2023-04-25T11:33:37;4.15;;;2.30;;
62687;SDS011;48752;51.056;17.056;2023-04-25T11:36:02;1.77;;;1.65;;
62687;SDS011;48752;51.056;17.056;2023-04-25T11:38:28;3.80;;;2.10;;
62687;SDS011;48752;51.056;17.056;2023-04-25T11:40:54;3.38;;;1.80;;
62687;SDS011;48752;51.056;17.056;2023-04-25T11:43:20;2.85;;;1.80;;
62687;SDS011;48752;51.056;17.056;2023-04-25T11:45:47;4.25;;;2.03;;
62687;SDS011;48752;51.056;17.056;2023-04-25T11:48:13;1.70;;;1.30;;
62687;SDS011;48752;51.056;17.056;2023-04-25T11:50:39;2.63;;;1.83;;
62687;SDS011;48752;51.056;17.056;2023-04-25T11:53:05;4.03;;;1.67;;
62687;SDS011;48752;51.056;17.056;2023-04-25T11:55:31;2.97;;;1.63;;
62687;SDS011;48752;51.056;17.056;2023-04-25T11:57:59;4.05;;;1.67;;
62687;SDS011;48752;51.056;17.056;2023-04-25T12:00:25;5.28;;;1.77;;
62687;SDS011;48752;51.056;17.056;2023-04-25T12:02:55;2.17;;;1.98;;
62687;SDS011;48752;51.056;17.056;2023-04-25T12:05:26;7.20;;;1.92;;
62687;SDS011;48752;51.056;17.056;2023-04-25T12:07:53;2.80;;;1.80;;
62687;SDS011;48752;51.056;17.056;2023-04-25T12:10:19;2.85;;;1.80;;
62687;SDS011;48752;51.056;17.056;2023-04-25T12:12:45;3.00;;;1.75;;
62687;SDS011;48752;51.056;17.056;2023-04-25T12:15:19;3.67;;;1.77;;
62687;SDS011;48752;51.056;17.056;2023-04-25T12:17:49;2.90;;;1.50;;
62687;SDS011;48752;51.056;17.056;2023-04-25T12:20:16;2.33;;;1.40;;
62687;SDS011;48752;51.056;17.056;2023-04-25T12:22:45;4.38;;;1.85;;
62687;SDS011;48752;51.056;17.056;2023-04-25T12:25:57;4.20;;;1.58;;
62687;SDS011;48752;51.056;17.056;2023-04-25T12:28:11;3.88;;;1.88;;
62687;SDS011;48752;51.056;17.056;2023-04-25T12:33:23;6.20;;;2.20;;
62687;SDS011;48752;51.056;17.056;2023-04-25T12:35:49;5.45;;;1.80;;
62687;SDS011;48752;51.056;17.056;2023-04-25T12:38:24;3.17;;;2.10;;
62687;SDS011;48752;51.056;17.056;2023-04-25T12:40:50;7.88;;;1.90;;
62687;SDS011;48752;51.056;17.056;2023-04-25T12:43:16;5.60;;;2.47;;
62687;SDS011;48752;51.056;17.056;2023-04-25T12:45:42;7.25;;;1.98;;
62687;SDS011;48752;51.056;17.056;2023-04-25T12:48:07;4.05;;;1.88;;
62687;SDS011;48752;51.056;17.056;2023-04-25T12:50:32;4.18;;;1.40;;
62687;SDS011;48752;51.056;17.056;2023-04-25T12:52:58;3.65;;;1.33;;
62687;SDS011;48752;51.056;17.056;2023-04-25T12:55:23;1.45;;;1.25;;
62687;SDS011;48752;51.056;17.056;2023-04-25T12:57:48;4.00;;;1.70;;
62687;SDS011;48752;51.056;17.056;2023-04-25T13:00:14;6.60;;;1.50;;
62687;SDS011;48752;51.056;17.056;2023-04-25T13:02:42;5.63;;;1.92;;
62687;SDS011;48752;51.056;17.056;2023-04-25T13:05:08;7.97;;;1.83;;
62687;SDS011;48752;51.056;17.056;2023-04-25T13:07:34;6.80;;;1.83;;
62687;SDS011;48752;51.056;17.056;2023-04-25T13:09:59;11.18;;;2.35;;
62687;SDS011;48752;51.056;17.056;2023-04-25T13:12:25;12.30;;;2.40;;
62687;SDS011;48752;51.056;17.056;2023-04-25T13:14:50;7.32;;;1.60;;
62687;SDS011;48752;51.056;17.056;2023-04-25T13:17:16;2.13;;;1.40;;
62687;SDS011;48752;51.056;17.056;2023-04-25T13:19:41;6.13;;;2.13;;
62687;SDS011;48752;51.056;17.056;2023-04-25T13:22:07;3.22;;;1.20;;
62687;SDS011;48752;51.056;17.056;2023-04-25T13:24:32;3.28;;;1.58;;
62687;SDS011;48752;51.056;17.056;2023-04-25T13:26:57;2.72;;;1.40;;
62687;SDS011;48752;51.056;17.056;2023-04-25T13:29:23;6.57;;;1.77;;
62687;SDS011;48752;51.056;17.056;2023-04-25T13:31:48;6.15;;;1.83;;
62687;SDS011;48752;51.056;17.056;2023-04-25T13:34:13;5.80;;;1.65;;
62687;SDS011;48752;51.056;17.056;2023-04-25T13:36:39;4.35;;;2.20;;
62687;SDS011;48752;51.056;17.056;2023-04-25T13:39:05;2.80;;;1.48;;
62687;SDS011;48752;51.056;17.056;2023-04-25T13:41:30;3.95;;;1.40;;
62687;SDS011;48752;51.056;17.056;2023-04-25T13:43:56;4.57;;;1.40;;
62687;SDS011;48752;51.056;17.056;2023-04-25T13:46:21;6.43;;;1.58;;
62687;SDS011;48752;51.056;17.056;2023-04-25T13:48:47;5.80;;;2.70;;
62687;SDS011;48752;51.056;17.056;2023-04-25T13:51:14;4.25;;;1.58;;
62687;SDS011;48752;51.056;17.056;2023-04-25T13:53:40;2.67;;;1.85;;
62687;SDS011;48752;51.056;17.056;2023-04-25T13:56:06;5.88;;;1.60;;
62687;SDS011;48752;51.056;17.056;2023-04-25T13:58:31;2.20;;;1.25;;
62687;SDS011;48752;51.056;17.056;2023-04-25T14:00:57;5.47;;;1.65;;
62687;SDS011;48752;51.056;17.056;2023-04-25T14:03:23;11.80;;;2.58;;
62687;SDS011;48752;51.056;17.056;2023-04-25T14:05:48;4.70;;;1.15;;
62687;SDS011;48752;51.056;17.056;2023-04-25T14:08:14;5.47;;;2.10;;
62687;SDS011;48752;51.056;17.056;2023-04-25T14:10:39;10.18;;;1.77;;
62687;SDS011;48752;51.056;17.056;2023-04-25T14:13:05;6.30;;;1.85;;
62687;SDS011;48752;51.056;17.056;2023-04-25T14:15:34;7.30;;;1.67;;
62687;SDS011;48752;51.056;17.056;2023-04-25T14:18:00;4.15;;;1.40;;
62687;SDS011;48752;51.056;17.056;2023-04-25T14:20:26;6.85;;;1.60;;
62687;SDS011;48752;51.056;17.056;2023-04-25T14:22:51;4.22;;;1.35;;
62687;SDS011;48752;51.056;17.056;2023-04-25T14:25:18;1.75;;;1.17;;
62687;SDS011;48752;51.056;17.056;2023-04-25T14:27:44;4.47;;;1.70;;
62687;SDS011;48752;51.056;17.056;2023-04-25T14:30:14;3.20;;;1.50;;
62687;SDS011;48752;51.056;17.056;2023-04-25T14:32:40;4.13;;;1.40;;
62687;SDS011;48752;51.056;17.056;2023-04-25T14:35:05;3.95;;;1.27;;